sensor_id;sensor_type;location;lat;lon;timestamp;temperature;humidity
27803;DHT22;15182;48.174;11.562;2023-07-09T00:01:44;27.90;67.60
27803;DHT22;15182;48.174;11.562;2023-07-09T00:04:12;27.90;67.50
27803;DHT22;15182;48.174;11.562;2023-07-09T00:06:40;27.90;67.70
27803;DHT22;15182;48.174;11.562;2023-07-09T00:09:13;27.90;67.90
27803;DHT22;15182;48.174;11.562;2023-07-09T00:11:42;27.80;68.10
27803;DHT22;15182;48.174;11.562;2023-07-09T00:14:12;27.80;68.80
27803;DHT22;15182;48.174;11.562;2023-07-09T00:16:44;27.80;68.20
27803;DHT22;15182;48.174;11.562;2023-07-09T00:19:17;27.80;68.40
27803;DHT22;15182;48.174;11.562;2023-07-09T00:21:48;27.80;68.40
27803;DHT22;15182;48.174;11.562;2023-07-09T00:24:19;27.70;68.50
27803;DHT22;15182;48.174;11.562;2023-07-09T00:26:47;27.70;68.50
27803;DHT22;15182;48.174;11.562;2023-07-09T00:29:17;27.70;68.60
27803;DHT22;15182;48.174;11.562;2023-07-09T00:31:45;27.70;68.80
27803;DHT22;15182;48.174;11.562;2023-07-09T00:34:14;27.60;68.80
27803;DHT22;15182;48.174;11.562;2023-07-09T00:36:48;27.60;68.90
27803;DHT22;15182;48.174;11.562;2023-07-09T00:39:18;27.60;68.90
27803;DHT22;15182;48.174;11.562;2023-07-09T00:41:48;27.60;69.10
27803;DHT22;15182;48.174;11.562;2023-07-09T00:44:27;27.50;69.00
27803;DHT22;15182;48.174;11.562;2023-07-09T00:47:21;27.50;69.40
27803;DHT22;15182;48.174;11.562;2023-07-09T00:50:04;27.50;69.40
27803;DHT22;15182;48.174;11.562;2023-07-09T00:52:39;27.50;69.60
27803;DHT22;15182;48.174;11.562;2023-07-09T00:55:14;27.50;69.60
27803;DHT22;15182;48.174;11.562;2023-07-09T00:57:44;27.50;69.70
27803;DHT22;15182;48.174;11.562;2023-07-09T01:00:28;27.40;70.60
27803;DHT22;15182;48.174;11.562;2023-07-09T01:03:04;27.40;69.90
27803;DHT22;15182;48.174;11.562;2023-07-09T01:05:32;27.40;69.90
27803;DHT22;15182;48.174;11.562;2023-07-09T01:08:00;27.40;69.90
27803;DHT22;15182;48.174;11.562;2023-07-09T01:10:28;27.30;69.80
27803;DHT22;15182;48.174;11.562;2023-07-09T01:12:58;27.30;70.10
27803;DHT22;15182;48.174;11.562;2023-07-09T01:15:27;27.30;70.20
27803;DHT22;15182;48.174;11.562;2023-07-09T01:17:56;27.30;70.30
27803;DHT22;15182;48.174;11.562;2023-07-09T01:20:27;27.20;70.20
27803;DHT22;15182;48.174;11.562;2023-07-09T01:22:56;27.20;70.40
27803;DHT22;15182;48.174;11.562;2023-07-09T01:25:27;27.20;70.50
27803;DHT22;15182;48.174;11.562;2023-07-09T01:27:56;27.20;70.50
27803;DHT22;15182;48.174;11.562;2023-07-09T01:30:27;27.20;70.50
27803;DHT22;15182;48.174;11.562;2023-07-09T01:32:58;27.10;70.60
27803;DHT22;15182;48.174;11.562;2023-07-09T01:35:29;27.10;70.80
27803;DHT22;15182;48.174;11.562;2023-07-09T01:38:00;27.10;71.00
27803;DHT22;15182;48.174;11.562;2023-07-09T01:40:28;27.10;71.20
27803;DHT22;15182;48.174;11.562;2023-07-09T01:42:57;27.00;71.00
27803;DHT22;15182;48.174;11.562;2023-07-09T01:45:28;27.00;71.10
27803;DHT22;15182;48.174;11.562;2023-07-09T01:47:56;27.00;71.40
27803;DHT22;15182;48.174;11.562;2023-07-09T01:50:24;27.00;71.40
27803;DHT22;15182;48.174;11.562;2023-07-09T01:52:53;27.00;72.30
27803;DHT22;15182;48.174;11.562;2023-07-09T01:55:23;26.90;72.40
27803;DHT22;15182;48.174;11.562;2023-07-09T01:57:51;26.90;71.70
27803;DHT22;15182;48.174;11.562;2023-07-09T02:00:20;26.90;71.70
27803;DHT22;15182;48.174;11.562;2023-07-09T02:02:48;26.90;71.80
27803;DHT22;15182;48.174;11.562;2023-07-09T02:05:18;26.90;71.80
27803;DHT22;15182;48.174;11.562;2023-07-09T02:07:47;26.90;72.10
27803;DHT22;15182;48.174;11.562;2023-07-09T02:10:17;26.90;72.10
27803;DHT22;15182;48.174;11.562;2023-07-09T02:12:47;26.80;72.20
27803;DHT22;15182;48.174;11.562;2023-07-09T02:15:16;26.80;72.30
27803;DHT22;15182;48.174;11.562;2023-07-09T02:17:44;26.80;72.30
27803;DHT22;15182;48.174;11.562;2023-07-09T02:20:13;26.80;72.40
27803;DHT22;15182;48.174;11.562;2023-07-09T02:22:41;26.80;72.50
27803;DHT22;15182;48.174;11.562;2023-07-09T02:25:09;26.80;72.40
27803;DHT22;15182;48.174;11.562;2023-07-09T02:27:38;26.80;72.60
27803;DHT22;15182;48.174;11.562;2023-07-09T02:30:08;26.80;72.60
27803;DHT22;15182;48.174;11.562;2023-07-09T02:32:37;26.80;72.90
27803;DHT22;15182;48.174;11.562;2023-07-09T02:35:06;26.70;73.60
27803;DHT22;15182;48.174;11.562;2023-07-09T02:37:35;26.70;72.80
27803;DHT22;15182;48.174;11.562;2023-07-09T02:40:03;26.70;72.90
27803;DHT22;15182;48.174;11.562;2023-07-09T02:42:33;26.70;73.00
27803;DHT22;15182;48.174;11.562;2023-07-09T02:45:01;26.70;73.00
27803;DHT22;15182;48.174;11.562;2023-07-09T02:47:33;26.70;73.10
27803;DHT22;15182;48.174;11.562;2023-07-09T02:50:01;26.70;73.20
27803;DHT22;15182;48.174;11.562;2023-07-09T02:52:29;26.60;74.00
27803;DHT22;15182;48.174;11.562;2023-07-09T02:54:57;26.60;73.20
27803;DHT22;15182;48.174;11.562;2023-07-09T02:57:25;26.60;73.30
27803;DHT22;15182;48.174;11.562;2023-07-09T02:59:53;26.60;73.40
27803;DHT22;15182;48.174;11.562;2023-07-09T03:02:21;26.60;73.40
27803;DHT22;15182;48.174;11.562;2023-07-09T03:04:50;26.60;73.60
27803;DHT22;15182;48.174;11.562;2023-07-09T03:07:18;26.60;73.60
27803;DHT22;15182;48.174;11.562;2023-07-09T03:09:46;26.60;73.70
27803;DHT22;15182;48.174;11.562;2023-07-09T03:12:13;26.50;73.60
27803;DHT22;15182;48.174;11.562;2023-07-09T03:14:41;26.50;73.70
27803;DHT22;15182;48.174;11.562;2023-07-09T03:17:09;26.50;73.80
27803;DHT22;15182;48.174;11.562;2023-07-09T03:19:37;26.50;73.90
27803;DHT22;15182;48.174;11.562;2023-07-09T03:22:06;26.50;74.10
27803;DHT22;15182;48.174;11.562;2023-07-09T03:24:34;26.50;74.30
27803;DHT22;15182;48.174;11.562;2023-07-09T03:27:02;26.40;74.10
27803;DHT22;15182;48.174;11.562;2023-07-09T03:29:30;26.40;74.20
27803;DHT22;15182;48.174;11.562;2023-07-09T03:31:58;26.40;74.20
27803;DHT22;15182;48.174;11.562;2023-07-09T03:34:26;26.40;74.40
27803;DHT22;15182;48.174;11.562;2023-07-09T03:36:54;26.40;74.30
27803;DHT22;15182;48.174;11.562;2023-07-09T03:39:23;26.40;74.40
27803;DHT22;15182;48.174;11.562;2023-07-09T03:41:50;26.40;74.50
27803;DHT22;15182;48.174;11.562;2023-07-09T03:44:18;26.40;74.50
27803;DHT22;15182;48.174;11.562;2023-07-09T03:46:46;26.40;74.70
27803;DHT22;15182;48.174;11.562;2023-07-09T03:49:14;26.40;74.60
27803;DHT22;15182;48.174;11.562;2023-07-09T03:51:42;26.40;74.70
27803;DHT22;15182;48.174;11.562;2023-07-09T03:54:09;26.30;74.80
27803;DHT22;15182;48.174;11.562;2023-07-09T03:56:39;26.30;74.90
27803;DHT22;15182;48.174;11.562;2023-07-09T03:59:06;26.30;75.10
27803;DHT22;15182;48.174;11.562;2023-07-09T04:01:34;26.20;75.00
27803;DHT22;15182;48.174;11.562;2023-07-09T04:04:02;26.20;75.00
27803;DHT22;15182;48.174;11.562;2023-07-09T04:06:30;26.20;75.20
27803;DHT22;15182;48.174;11.562;2023-07-09T04:08:58;26.20;75.30
27803;DHT22;15182;48.174;11.562;2023-07-09T04:11:25;26.20;75.30
27803;DHT22;15182;48.174;11.562;2023-07-09T04:13:55;26.20;75.40
27803;DHT22;15182;48.174;11.562;2023-07-09T04:16:22;26.20;75.60
27803;DHT22;15182;48.174;11.562;2023-07-09T04:18:50;26.20;75.60
27803;DHT22;15182;48.174;11.562;2023-07-09T04:21:18;26.20;75.60
27803;DHT22;15182;48.174;11.562;2023-07-09T04:23:46;26.20;75.80
27803;DHT22;15182;48.174;11.562;2023-07-09T04:26:14;26.10;75.80
27803;DHT22;15182;48.174;11.562;2023-07-09T04:28:42;26.20;76.80
27803;DHT22;15182;48.174;11.562;2023-07-09T04:31:11;26.10;75.80
27803;DHT22;15182;48.174;11.562;2023-07-09T04:33:39;26.10;76.10
27803;DHT22;15182;48.174;11.562;2023-07-09T04:36:06;26.10;76.10
27803;DHT22;15182;48.174;11.562;2023-07-09T04:38:35;26.10;76.10
27803;DHT22;15182;48.174;11.562;2023-07-09T04:41:03;26.20;76.20
27803;DHT22;15182;48.174;11.562;2023-07-09T04:43:30;26.10;76.10
27803;DHT22;15182;48.174;11.562;2023-07-09T04:45:58;26.20;76.40
27803;DHT22;15182;48.174;11.562;2023-07-09T04:48:27;26.20;76.30
27803;DHT22;15182;48.174;11.562;2023-07-09T04:50:55;26.20;76.80
27803;DHT22;15182;48.174;11.562;2023-07-09T04:53:23;26.20;76.30
27803;DHT22;15182;48.174;11.562;2023-07-09T04:55:51;26.20;76.30
27803;DHT22;15182;48.174;11.562;2023-07-09T04:58:19;26.20;76.30
27803;DHT22;15182;48.174;11.562;2023-07-09T05:00:47;26.30;76.40
27803;DHT22;15182;48.174;11.562;2023-07-09T05:03:18;26.30;76.40
27803;DHT22;15182;48.174;11.562;2023-07-09T05:05:48;26.30;77.30
27803;DHT22;15182;48.174;11.562;2023-07-09T05:08:15;26.30;77.20
27803;DHT22;15182;48.174;11.562;2023-07-09T05:10:45;26.30;76.30
27803;DHT22;15182;48.174;11.562;2023-07-09T05:13:14;26.40;76.30
27803;DHT22;15182;48.174;11.562;2023-07-09T05:15:43;26.40;76.20
27803;DHT22;15182;48.174;11.562;2023-07-09T05:18:13;26.40;77.10
27803;DHT22;15182;48.174;11.562;2023-07-09T05:20:41;26.40;77.00
27803;DHT22;15182;48.174;11.562;2023-07-09T05:23:11;26.40;76.00
27803;DHT22;15182;48.174;11.562;2023-07-09T05:25:39;26.40;76.10
27803;DHT22;15182;48.174;11.562;2023-07-09T05:28:07;26.40;76.10
27803;DHT22;15182;48.174;11.562;2023-07-09T05:30:35;26.40;76.10
27803;DHT22;15182;48.174;11.562;2023-07-09T05:33:03;26.40;76.00
27803;DHT22;15182;48.174;11.562;2023-07-09T05:35:30;26.40;75.80
27803;DHT22;15182;48.174;11.562;2023-07-09T05:37:58;26.50;75.90
27803;DHT22;15182;48.174;11.562;2023-07-09T05:40:27;26.50;76.00
27803;DHT22;15182;48.174;11.562;2023-07-09T05:42:55;26.50;75.90
27803;DHT22;15182;48.174;11.562;2023-07-09T05:45:23;26.50;75.80
27803;DHT22;15182;48.174;11.562;2023-07-09T05:47:50;26.60;75.80
27803;DHT22;15182;48.174;11.562;2023-07-09T05:50:18;26.60;75.70
27803;DHT22;15182;48.174;11.562;2023-07-09T05:52:46;26.70;75.70
27803;DHT22;15182;48.174;11.562;2023-07-09T05:55:14;26.70;75.50
27803;DHT22;15182;48.174;11.562;2023-07-09T05:57:43;26.70;75.30
27803;DHT22;15182;48.174;11.562;2023-07-09T06:00:12;26.80;75.30
27803;DHT22;15182;48.174;11.562;2023-07-09T06:02:40;26.80;75.20
27803;DHT22;15182;48.174;11.562;2023-07-09T06:05:08;26.90;75.10
27803;DHT22;15182;48.174;11.562;2023-07-09T06:07:37;26.90;74.90
27803;DHT22;15182;48.174;11.562;2023-07-09T06:10:07;26.90;74.70
27803;DHT22;15182;48.174;11.562;2023-07-09T06:12:36;27.00;74.70
27803;DHT22;15182;48.174;11.562;2023-07-09T06:15:06;27.00;74.70
27803;DHT22;15182;48.174;11.562;2023-07-09T06:17:34;27.00;74.70
27803;DHT22;15182;48.174;11.562;2023-07-09T06:20:03;27.10;74.70
27803;DHT22;15182;48.174;11.562;2023-07-09T06:22:31;27.10;74.50
27803;DHT22;15182;48.174;11.562;2023-07-09T06:24:59;27.10;74.40
27803;DHT22;15182;48.174;11.562;2023-07-09T06:27:26;27.20;74.30
27803;DHT22;15182;48.174;11.562;2023-07-09T06:29:54;27.30;74.10
27803;DHT22;15182;48.174;11.562;2023-07-09T06:32:23;27.30;75.00
27803;DHT22;15182;48.174;11.562;2023-07-09T06:34:52;27.40;74.20
27803;DHT22;15182;48.174;11.562;2023-07-09T06:37:20;27.50;74.10
27803;DHT22;15182;48.174;11.562;2023-07-09T06:39:47;27.60;73.90
27803;DHT22;15182;48.174;11.562;2023-07-09T06:42:15;27.70;73.90
27803;DHT22;15182;48.174;11.562;2023-07-09T06:45:09;27.70;73.80
27803;DHT22;15182;48.174;11.562;2023-07-09T06:47:39;27.80;73.80
27803;DHT22;15182;48.174;11.562;2023-07-09T06:50:07;27.90;73.70
27803;DHT22;15182;48.174;11.562;2023-07-09T06:52:35;28.00;73.40
27803;DHT22;15182;48.174;11.562;2023-07-09T06:55:03;28.00;73.10
27803;DHT22;15182;48.174;11.562;2023-07-09T06:57:31;28.10;73.00
27803;DHT22;15182;48.174;11.562;2023-07-09T06:59:59;28.30;73.00
27803;DHT22;15182;48.174;11.562;2023-07-09T07:02:27;28.30;72.60
27803;DHT22;15182;48.174;11.562;2023-07-09T07:04:56;28.40;72.30
27803;DHT22;15182;48.174;11.562;2023-07-09T07:07:24;28.60;72.30
27803;DHT22;15182;48.174;11.562;2023-07-09T07:09:52;28.70;71.70
27803;DHT22;15182;48.174;11.562;2023-07-09T07:12:27;28.80;71.30
27803;DHT22;15182;48.174;11.562;2023-07-09T07:14:56;28.90;70.60
27803;DHT22;15182;48.174;11.562;2023-07-09T07:17:24;29.00;71.80
27803;DHT22;15182;48.174;11.562;2023-07-09T07:19:51;29.10;70.70
27803;DHT22;15182;48.174;11.562;2023-07-09T07:22:20;29.20;71.40
27803;DHT22;15182;48.174;11.562;2023-07-09T07:24:48;29.30;71.20
27803;DHT22;15182;48.174;11.562;2023-07-09T07:27:16;29.40;71.30
27803;DHT22;15182;48.174;11.562;2023-07-09T07:29:44;29.50;70.10
27803;DHT22;15182;48.174;11.562;2023-07-09T07:32:12;29.60;70.00
27803;DHT22;15182;48.174;11.562;2023-07-09T07:34:40;29.70;69.60
27803;DHT22;15182;48.174;11.562;2023-07-09T07:37:08;29.80;69.00
27803;DHT22;15182;48.174;11.562;2023-07-09T07:39:38;29.90;69.10
27803;DHT22;15182;48.174;11.562;2023-07-09T07:42:06;30.00;68.70
27803;DHT22;15182;48.174;11.562;2023-07-09T07:44:34;30.10;68.50
27803;DHT22;15182;48.174;11.562;2023-07-09T07:47:02;30.20;68.10
27803;DHT22;15182;48.174;11.562;2023-07-09T07:49:31;30.30;68.40
27803;DHT22;15182;48.174;11.562;2023-07-09T07:51:59;30.40;67.80
27803;DHT22;15182;48.174;11.562;2023-07-09T07:54:29;30.50;67.50
27803;DHT22;15182;48.174;11.562;2023-07-09T07:56:59;30.60;67.40
27803;DHT22;15182;48.174;11.562;2023-07-09T07:59:26;30.70;67.50
27803;DHT22;15182;48.174;11.562;2023-07-09T08:01:54;30.80;67.60
27803;DHT22;15182;48.174;11.562;2023-07-09T08:04:25;30.90;67.10
27803;DHT22;15182;48.174;11.562;2023-07-09T08:06:53;31.00;67.40
27803;DHT22;15182;48.174;11.562;2023-07-09T08:09:21;31.10;66.50
27803;DHT22;15182;48.174;11.562;2023-07-09T08:11:49;31.20;66.00
27803;DHT22;15182;48.174;11.562;2023-07-09T08:14:18;31.30;65.70
27803;DHT22;15182;48.174;11.562;2023-07-09T08:16:46;31.40;65.50
27803;DHT22;15182;48.174;11.562;2023-07-09T08:19:18;31.40;65.50
27803;DHT22;15182;48.174;11.562;2023-07-09T08:21:46;31.50;65.10
27803;DHT22;15182;48.174;11.562;2023-07-09T08:24:14;31.60;64.70
27803;DHT22;15182;48.174;11.562;2023-07-09T08:26:42;31.70;64.60
27803;DHT22;15182;48.174;11.562;2023-07-09T08:29:10;31.70;64.90
27803;DHT22;15182;48.174;11.562;2023-07-09T08:31:39;31.80;64.00
27803;DHT22;15182;48.174;11.562;2023-07-09T08:34:08;31.90;64.00
27803;DHT22;15182;48.174;11.562;2023-07-09T08:36:36;32.00;63.60
27803;DHT22;15182;48.174;11.562;2023-07-09T08:39:03;32.10;63.50
27803;DHT22;15182;48.174;11.562;2023-07-09T08:41:42;32.20;63.00
27803;DHT22;15182;48.174;11.562;2023-07-09T08:44:31;32.30;62.00
27803;DHT22;15182;48.174;11.562;2023-07-09T08:47:12;32.40;63.30
27803;DHT22;15182;48.174;11.562;2023-07-09T08:49:46;32.40;62.60
27803;DHT22;15182;48.174;11.562;2023-07-09T08:52:23;32.60;62.10
27803;DHT22;15182;48.174;11.562;2023-07-09T08:54:55;32.60;60.80
27803;DHT22;15182;48.174;11.562;2023-07-09T08:57:31;32.80;61.10
27803;DHT22;15182;48.174;11.562;2023-07-09T09:00:07;32.90;60.60
27803;DHT22;15182;48.174;11.562;2023-07-09T09:02:49;32.90;59.70
27803;DHT22;15182;48.174;11.562;2023-07-09T09:05:19;33.00;59.60
27803;DHT22;15182;48.174;11.562;2023-07-09T09:07:52;33.10;59.80
27803;DHT22;15182;48.174;11.562;2023-07-09T09:10:32;33.10;59.60
27803;DHT22;15182;48.174;11.562;2023-07-09T09:13:10;33.30;59.40
27803;DHT22;15182;48.174;11.562;2023-07-09T09:15:41;33.30;57.80
27803;DHT22;15182;48.174;11.562;2023-07-09T09:18:21;33.40;57.30
27803;DHT22;15182;48.174;11.562;2023-07-09T09:20:55;33.50;57.60
27803;DHT22;15182;48.174;11.562;2023-07-09T09:23:30;33.60;57.40
27803;DHT22;15182;48.174;11.562;2023-07-09T09:26:17;33.60;56.80
27803;DHT22;15182;48.174;11.562;2023-07-09T09:28:46;33.60;56.30
27803;DHT22;15182;48.174;11.562;2023-07-09T09:31:15;33.70;56.90
27803;DHT22;15182;48.174;11.562;2023-07-09T09:33:47;33.80;56.80
27803;DHT22;15182;48.174;11.562;2023-07-09T09:36:17;33.90;56.90
27803;DHT22;15182;48.174;11.562;2023-07-09T09:38:47;33.90;56.80
27803;DHT22;15182;48.174;11.562;2023-07-09T09:41:18;34.00;56.30
27803;DHT22;15182;48.174;11.562;2023-07-09T09:43:48;34.10;56.30
27803;DHT22;15182;48.174;11.562;2023-07-09T09:46:20;34.20;56.40
27803;DHT22;15182;48.174;11.562;2023-07-09T09:48:53;34.30;55.70
27803;DHT22;15182;48.174;11.562;2023-07-09T09:51:23;34.40;55.30
27803;DHT22;15182;48.174;11.562;2023-07-09T09:53:55;34.40;56.10
27803;DHT22;15182;48.174;11.562;2023-07-09T09:56:27;34.50;56.00
27803;DHT22;15182;48.174;11.562;2023-07-09T09:58:57;34.60;55.90
27803;DHT22;15182;48.174;11.562;2023-07-09T10:01:28;34.70;55.60
27803;DHT22;15182;48.174;11.562;2023-07-09T10:03:59;34.80;55.50
27803;DHT22;15182;48.174;11.562;2023-07-09T10:06:35;34.90;55.50
27803;DHT22;15182;48.174;11.562;2023-07-09T10:09:10;35.00;55.00
27803;DHT22;15182;48.174;11.562;2023-07-09T10:11:47;35.10;54.70
27803;DHT22;15182;48.174;11.562;2023-07-09T10:14:32;35.30;54.90
27803;DHT22;15182;48.174;11.562;2023-07-09T10:17:09;35.40;54.50
27803;DHT22;15182;48.174;11.562;2023-07-09T10:19:49;35.50;54.10
27803;DHT22;15182;48.174;11.562;2023-07-09T10:22:30;35.60;53.90
27803;DHT22;15182;48.174;11.562;2023-07-09T10:25:24;35.80;54.00
27803;DHT22;15182;48.174;11.562;2023-07-09T10:28:16;35.80;53.50
27803;DHT22;15182;48.174;11.562;2023-07-09T10:31:07;35.90;52.90
27803;DHT22;15182;48.174;11.562;2023-07-09T10:33:50;36.10;53.40
27803;DHT22;15182;48.174;11.562;2023-07-09T10:36:33;36.20;53.10
27803;DHT22;15182;48.174;11.562;2023-07-09T10:39:11;36.30;53.10
27803;DHT22;15182;48.174;11.562;2023-07-09T10:41:43;36.40;53.30
27803;DHT22;15182;48.174;11.562;2023-07-09T10:44:16;36.50;52.80
27803;DHT22;15182;48.174;11.562;2023-07-09T10:46:51;36.60;52.00
27803;DHT22;15182;48.174;11.562;2023-07-09T10:49:22;36.70;52.10
27803;DHT22;15182;48.174;11.562;2023-07-09T10:51:59;36.70;52.00
27803;DHT22;15182;48.174;11.562;2023-07-09T10:54:34;36.80;51.80
27803;DHT22;15182;48.174;11.562;2023-07-09T10:57:12;36.90;52.10
27803;DHT22;15182;48.174;11.562;2023-07-09T10:59:48;37.10;51.80
27803;DHT22;15182;48.174;11.562;2023-07-09T11:02:25;37.20;51.40
27803;DHT22;15182;48.174;11.562;2023-07-09T11:04:57;37.20;51.30
27803;DHT22;15182;48.174;11.562;2023-07-09T11:07:31;37.40;52.50
27803;DHT22;15182;48.174;11.562;2023-07-09T11:10:02;37.50;51.50
27803;DHT22;15182;48.174;11.562;2023-07-09T11:12:36;37.60;51.50
27803;DHT22;15182;48.174;11.562;2023-07-09T11:15:11;37.70;50.90
27803;DHT22;15182;48.174;11.562;2023-07-09T11:17:44;37.80;50.70
27803;DHT22;15182;48.174;11.562;2023-07-09T11:20:19;37.90;50.20
27803;DHT22;15182;48.174;11.562;2023-07-09T11:22:54;38.00;50.20
27803;DHT22;15182;48.174;11.562;2023-07-09T11:25:42;38.00;49.90
27803;DHT22;15182;48.174;11.562;2023-07-09T11:28:11;38.10;49.90
27803;DHT22;15182;48.174;11.562;2023-07-09T11:30:47;38.10;50.50
27803;DHT22;15182;48.174;11.562;2023-07-09T11:33:18;38.20;49.90
27803;DHT22;15182;48.174;11.562;2023-07-09T11:35:48;38.20;50.20
27803;DHT22;15182;48.174;11.562;2023-07-09T11:38:21;38.30;49.90
27803;DHT22;15182;48.174;11.562;2023-07-09T11:40:51;38.40;49.20
27803;DHT22;15182;48.174;11.562;2023-07-09T11:43:29;38.50;49.20
27803;DHT22;15182;48.174;11.562;2023-07-09T11:46:07;38.60;49.60
27803;DHT22;15182;48.174;11.562;2023-07-09T11:48:40;38.70;49.70
27803;DHT22;15182;48.174;11.562;2023-07-09T11:51:13;38.70;49.20
27803;DHT22;15182;48.174;11.562;2023-07-09T11:53:48;38.80;49.10
27803;DHT22;15182;48.174;11.562;2023-07-09T11:56:19;38.80;48.10
27803;DHT22;15182;48.174;11.562;2023-07-09T11:58:48;38.80;48.40
27803;DHT22;15182;48.174;11.562;2023-07-09T12:01:19;38.70;49.10
27803;DHT22;15182;48.174;11.562;2023-07-09T12:03:48;38.70;48.50
27803;DHT22;15182;48.174;11.562;2023-07-09T12:06:20;38.60;48.40
27803;DHT22;15182;48.174;11.562;2023-07-09T12:08:51;38.60;48.10
27803;DHT22;15182;48.174;11.562;2023-07-09T12:11:24;38.60;48.70
27803;DHT22;15182;48.174;11.562;2023-07-09T12:13:53;38.60;48.20
27803;DHT22;15182;48.174;11.562;2023-07-09T12:16:24;38.70;48.70
27803;DHT22;15182;48.174;11.562;2023-07-09T12:18:53;38.70;48.70
27803;DHT22;15182;48.174;11.562;2023-07-09T12:21:23;38.70;48.70
27803;DHT22;15182;48.174;11.562;2023-07-09T12:23:52;38.80;48.90
27803;DHT22;15182;48.174;11.562;2023-07-09T12:26:22;38.70;47.30
27803;DHT22;15182;48.174;11.562;2023-07-09T12:28:51;38.80;47.70
27803;DHT22;15182;48.174;11.562;2023-07-09T12:31:24;38.80;47.80
27803;DHT22;15182;48.174;11.562;2023-07-09T12:33:55;38.80;47.60
27803;DHT22;15182;48.174;11.562;2023-07-09T12:36:25;38.80;48.30
27803;DHT22;15182;48.174;11.562;2023-07-09T12:38:57;38.80;48.10
27803;DHT22;15182;48.174;11.562;2023-07-09T12:41:30;38.90;47.40
27803;DHT22;15182;48.174;11.562;2023-07-09T12:44:02;38.90;46.70
27803;DHT22;15182;48.174;11.562;2023-07-09T12:46:31;38.90;47.30
27803;DHT22;15182;48.174;11.562;2023-07-09T12:48:59;39.00;46.90
27803;DHT22;15182;48.174;11.562;2023-07-09T12:51:29;39.00;47.10
27803;DHT22;15182;48.174;11.562;2023-07-09T12:54:03;39.00;47.10
27803;DHT22;15182;48.174;11.562;2023-07-09T12:56:38;39.00;47.60
27803;DHT22;15182;48.174;11.562;2023-07-09T12:59:18;39.00;47.40
27803;DHT22;15182;48.174;11.562;2023-07-09T13:02:06;39.00;46.90
27803;DHT22;15182;48.174;11.562;2023-07-09T13:04:39;38.90;46.70
27803;DHT22;15182;48.174;11.562;2023-07-09T13:07:26;38.80;47.40
27803;DHT22;15182;48.174;11.562;2023-07-09T13:10:11;38.70;47.10
27803;DHT22;15182;48.174;11.562;2023-07-09T13:12:45;38.70;47.30
27803;DHT22;15182;48.174;11.562;2023-07-09T13:15:28;38.60;48.30
27803;DHT22;15182;48.174;11.562;2023-07-09T13:20:49;38.30;47.70
27803;DHT22;15182;48.174;11.562;2023-07-09T13:23:19;38.20;48.10
27803;DHT22;15182;48.174;11.562;2023-07-09T13:25:49;38.00;47.80
27803;DHT22;15182;48.174;11.562;2023-07-09T13:28:20;37.90;48.40
27803;DHT22;15182;48.174;11.562;2023-07-09T13:30:50;37.80;47.90
27803;DHT22;15182;48.174;11.562;2023-07-09T13:33:20;37.80;48.10
27803;DHT22;15182;48.174;11.562;2023-07-09T13:35:48;37.60;48.40
27803;DHT22;15182;48.174;11.562;2023-07-09T13:38:20;37.60;48.40
27803;DHT22;15182;48.174;11.562;2023-07-09T13:40:53;37.50;48.50
27803;DHT22;15182;48.174;11.562;2023-07-09T13:43:28;37.50;47.90
27803;DHT22;15182;48.174;11.562;2023-07-09T13:45:57;37.50;48.00
27803;DHT22;15182;48.174;11.562;2023-07-09T13:48:26;37.50;47.90
27803;DHT22;15182;48.174;11.562;2023-07-09T13:50:55;37.50;47.90
27803;DHT22;15182;48.174;11.562;2023-07-09T13:53:25;37.50;47.90
27803;DHT22;15182;48.174;11.562;2023-07-09T13:55:57;37.50;48.20
27803;DHT22;15182;48.174;11.562;2023-07-09T13:58:27;37.50;47.70
27803;DHT22;15182;48.174;11.562;2023-07-09T14:00:57;37.50;48.10
27803;DHT22;15182;48.174;11.562;2023-07-09T14:03:33;37.50;47.60
27803;DHT22;15182;48.174;11.562;2023-07-09T14:06:02;37.50;47.60
27803;DHT22;15182;48.174;11.562;2023-07-09T14:08:29;37.50;47.90
27803;DHT22;15182;48.174;11.562;2023-07-09T14:10:59;37.50;47.50
27803;DHT22;15182;48.174;11.562;2023-07-09T14:13:29;37.50;47.50
27803;DHT22;15182;48.174;11.562;2023-07-09T14:15:59;37.50;48.00
27803;DHT22;15182;48.174;11.562;2023-07-09T14:18:27;37.60;47.80
27803;DHT22;15182;48.174;11.562;2023-07-09T14:20:56;37.60;47.10
27803;DHT22;15182;48.174;11.562;2023-07-09T14:23:25;37.60;47.30
27803;DHT22;15182;48.174;11.562;2023-07-09T14:25:52;37.60;47.50
27803;DHT22;15182;48.174;11.562;2023-07-09T14:32:34;37.50;46.90
27803;DHT22;15182;48.174;11.562;2023-07-09T14:35:09;37.50;47.10
27803;DHT22;15182;48.174;11.562;2023-07-09T14:37:39;37.50;47.50
27803;DHT22;15182;48.174;11.562;2023-07-09T14:40:08;37.40;47.60
27803;DHT22;15182;48.174;11.562;2023-07-09T14:42:37;37.40;47.20
27803;DHT22;15182;48.174;11.562;2023-07-09T14:45:15;37.40;47.20
27803;DHT22;15182;48.174;11.562;2023-07-09T14:47:45;37.40;47.00
27803;DHT22;15182;48.174;11.562;2023-07-09T14:50:13;37.40;46.90
27803;DHT22;15182;48.174;11.562;2023-07-09T14:52:42;37.30;47.10
27803;DHT22;15182;48.174;11.562;2023-07-09T14:55:15;37.20;47.10
27803;DHT22;15182;48.174;11.562;2023-07-09T14:57:44;37.20;46.80
27803;DHT22;15182;48.174;11.562;2023-07-09T15:00:14;37.20;46.60
27803;DHT22;15182;48.174;11.562;2023-07-09T15:02:45;37.10;46.50
27803;DHT22;15182;48.174;11.562;2023-07-09T15:05:16;37.10;46.60
27803;DHT22;15182;48.174;11.562;2023-07-09T15:07:45;37.00;46.50
27803;DHT22;15182;48.174;11.562;2023-07-09T15:10:14;36.90;46.60
27803;DHT22;15182;48.174;11.562;2023-07-09T15:12:44;36.90;47.30
27803;DHT22;15182;48.174;11.562;2023-07-09T15:15:16;36.80;47.00
27803;DHT22;15182;48.174;11.562;2023-07-09T15:17:49;36.80;47.80
27803;DHT22;15182;48.174;11.562;2023-07-09T15:20:19;36.70;47.10
27803;DHT22;15182;48.174;11.562;2023-07-09T15:22:49;36.70;47.40
27803;DHT22;15182;48.174;11.562;2023-07-09T15:25:20;36.70;47.70
27803;DHT22;15182;48.174;11.562;2023-07-09T15:27:49;36.60;47.10
27803;DHT22;15182;48.174;11.562;2023-07-09T15:30:19;36.50;47.70
27803;DHT22;15182;48.174;11.562;2023-07-09T15:32:50;36.60;48.00
27803;DHT22;15182;48.174;11.562;2023-07-09T15:35:19;36.50;47.60
27803;DHT22;15182;48.174;11.562;2023-07-09T15:37:47;36.50;47.50
27803;DHT22;15182;48.174;11.562;2023-07-09T15:40:19;36.50;47.80
27803;DHT22;15182;48.174;11.562;2023-07-09T15:42:48;36.40;47.30
27803;DHT22;15182;48.174;11.562;2023-07-09T15:45:19;36.40;47.50